createdAt,value
2018-09-01T00:00:58.614Z,47.86
2018-09-01T00:02:08.319Z,47.96
2018-09-01T00:03:17.756Z,48.06
2018-09-01T00:04:27.502Z,47.96
2018-09-01T00:05:36.673Z,47.86
2018-09-01T00:06:46.623Z,47.67
2018-09-01T00:07:56.315Z,47.86
2018-09-01T00:09:05.477Z,47.96
2018-09-01T00:10:14.396Z,47.77
2018-09-01T00:11:24.094Z,47.67
2018-09-01T00:12:33.522Z,47.96
2018-09-01T00:13:43.006Z,47.96
2018-09-01T00:14:52.684Z,47.86
2018-09-01T00:16:01.885Z,47.67
2018-09-01T00:17:11.581Z,47.96
2018-09-01T00:18:21.033Z,47.96
2018-09-01T00:19:30.980Z,47.86
2018-09-01T00:20:40.681Z,47.86
2018-09-01T00:21:50.113Z,47.67
2018-09-01T00:22:59.276Z,47.86
2018-09-01T00:24:08.196Z,47.86
2018-09-01T00:25:17.372Z,47.77
2018-09-01T00:26:27.041Z,47.77
2018-09-01T00:27:36.449Z,47.86
2018-09-01T00:28:45.634Z,48.06
2018-09-01T00:29:55.320Z,47.86
2018-09-01T00:31:04.512Z,47.96
2018-09-01T00:32:14.006Z,48.06
2018-09-01T00:33:23.681Z,47.67
2018-09-01T00:34:33.387Z,47.96
2018-09-01T00:35:42.819Z,47.86
2018-09-01T00:36:51.764Z,47.67
2018-09-01T00:38:01.222Z,47.96
2018-09-01T00:39:10.911Z,47.86
2018-09-01T00:40:20.080Z,47.86
2018-09-01T00:41:29.506Z,47.86
2018-09-01T00:42:39.459Z,47.96
2018-09-01T00:43:48.630Z,47.77
2018-09-01T00:44:58.581Z,47.96
2018-09-01T00:46:08.009Z,47.86
2018-09-01T00:47:17.439Z,48.06
2018-09-01T00:48:26.613Z,47.67
2018-09-01T00:49:36.925Z,47.96
2018-09-01T00:50:46.396Z,47.96
2018-09-01T00:51:55.851Z,47.96
2018-09-01T00:53:05.288Z,47.96
2018-09-01T00:54:14.716Z,47.96
2018-09-01T00:55:23.637Z,47.86
2018-09-01T00:56:32.809Z,47.86
2018-09-01T00:57:42.246Z,47.96
2018-09-01T00:58:52.255Z,47.96
2018-09-01T01:00:02.008Z,47.67
2018-09-01T01:01:11.185Z,47.96
2018-09-01T01:02:20.617Z,47.86
2018-09-01T01:03:30.348Z,47.96
2018-09-01T01:04:40.052Z,47.86
2018-09-01T01:05:48.974Z,47.67
2018-09-01T01:06:58.669Z,47.96
2018-09-01T01:08:08.103Z,48.03
2018-09-01T01:09:17.807Z,47.96
2018-09-01T01:10:26.758Z,47.84
2018-09-01T01:11:36.194Z,47.96
2018-09-01T01:12:45.618Z,47.96
2018-09-01T01:13:55.301Z,47.96
2018-09-01T01:15:05.097Z,47.86
2018-09-01T01:16:14.541Z,47.96
2018-09-01T01:17:23.437Z,47.96
2018-09-01T01:18:32.852Z,47.86
2018-09-01T01:19:41.773Z,47.96
2018-09-01T01:20:51.457Z,47.96
2018-09-01T01:22:00.374Z,47.96
2018-09-01T01:23:10.069Z,47.77
2018-09-01T01:24:19.769Z,47.86
2018-09-01T01:25:29.201Z,47.67
2018-09-01T01:26:37.877Z,47.86
2018-09-01T01:27:47.325Z,47.67
2018-09-01T01:28:56.754Z,47.67
2018-09-01T01:30:06.708Z,47.67
2018-09-01T01:31:16.136Z,47.86
2018-09-01T01:32:25.834Z,47.96
2018-09-01T01:33:35.509Z,47.86
2018-09-01T01:34:45.209Z,47.67
2018-09-01T01:35:54.125Z,47.67
2018-09-01T01:37:03.561Z,47.58
2018-09-01T01:38:12.776Z,47.67
2018-09-01T01:39:22.455Z,47.67
2018-09-01T01:40:31.644Z,47.96
2018-09-01T01:41:40.837Z,47.58
2018-09-01T01:42:50.267Z,47.58
2018-09-01T01:43:59.703Z,47.86
2018-09-01T01:45:09.158Z,47.67
2018-09-01T01:46:18.599Z,47.77
2018-09-01T01:47:27.780Z,47.58
2018-09-01T01:48:36.747Z,47.67
2018-09-01T01:49:46.133Z,47.77
2018-09-01T01:50:54.796Z,47.96
2018-09-01T01:52:03.983Z,47.77
2018-09-01T01:53:13.688Z,47.67
2018-09-01T01:54:23.133Z,47.67
2018-09-01T01:55:33.089Z,47.77
2018-09-01T01:56:42.262Z,47.58
2018-09-01T01:57:51.691Z,47.86
2018-09-01T01:59:01.387Z,47.77
2018-09-01T02:00:10.823Z,47.86
2018-09-01T02:01:20.000Z,47.77
2018-09-01T02:02:29.164Z,47.58
2018-09-01T02:03:38.862Z,47.86
2018-09-01T02:04:48.816Z,47.77
2018-09-01T02:05:58.500Z,47.67
2018-09-01T02:07:07.415Z,47.48
2018-09-01T02:08:16.584Z,47.77
2018-09-01T02:09:25.999Z,47.74
2018-09-01T02:10:34.914Z,47.77
2018-09-01T02:11:43.829Z,47.86
2018-09-01T02:12:53.005Z,47.48
2018-09-01T02:14:02.437Z,47.77
2018-09-01T02:15:11.625Z,47.96
2018-09-01T02:16:21.069Z,47.77
2018-09-01T02:17:30.552Z,47.65
2018-09-01T02:18:40.271Z,47.86
2018-09-01T02:19:49.952Z,47.77
2018-09-01T02:20:59.382Z,47.67
2018-09-01T02:22:08.810Z,47.86
2018-09-01T02:23:18.249Z,47.67
2018-09-01T02:24:27.684Z,47.77
2018-09-01T02:25:37.128Z,47.77
2018-09-01T02:26:46.572Z,47.86
2018-09-01T02:27:56.271Z,47.77
2018-09-01T02:29:05.979Z,47.67
2018-09-01T02:30:14.894Z,47.86
2018-09-01T02:31:24.594Z,47.77
2018-09-01T02:32:33.772Z,47.74
2018-09-01T02:33:43.462Z,47.67
2018-09-01T02:34:53.170Z,47.86
2018-09-01T02:36:02.345Z,47.77
2018-09-01T02:37:12.058Z,47.77
2018-09-01T02:38:20.968Z,47.67
2018-09-01T02:39:30.398Z,47.77
2018-09-01T02:40:40.359Z,47.77
2018-09-01T02:41:50.053Z,47.77
2018-09-01T02:42:59.490Z,47.67
2018-09-01T02:44:09.182Z,47.77
2018-09-01T02:45:18.631Z,47.77
2018-09-01T02:46:28.322Z,47.86
2018-09-01T02:47:37.482Z,47.74
2018-09-01T02:48:47.165Z,47.86
2018-09-01T02:49:56.610Z,47.86
2018-09-01T02:51:05.801Z,47.86
2018-09-01T02:52:14.977Z,47.67
2018-09-01T02:53:24.412Z,47.77
2018-09-01T02:54:34.367Z,47.77
2018-09-01T02:55:44.075Z,47.77
2018-09-01T02:56:53.769Z,47.45
2018-09-01T02:58:02.948Z,47.86
2018-09-01T02:59:12.135Z,47.67
2018-09-01T03:00:21.608Z,47.86
2018-09-01T03:01:30.781Z,47.67
2018-09-01T03:02:40.499Z,47.86
2018-09-01T03:03:50.446Z,47.77
2018-09-01T03:05:00.131Z,47.67
2018-09-01T03:06:09.825Z,47.67
2018-09-01T03:07:19.242Z,47.77
2018-09-01T03:08:28.661Z,47.86
2018-09-01T03:09:38.098Z,47.96
2018-09-01T03:10:47.021Z,47.67
2018-09-01T03:11:56.214Z,47.67
2018-09-01T03:13:05.153Z,47.74
2018-09-01T03:14:14.907Z,47.86
2018-09-01T03:15:24.584Z,47.67
2018-09-01T03:16:34.301Z,47.77
2018-09-01T03:17:43.725Z,47.77
2018-09-01T03:18:53.146Z,47.67
2018-09-01T03:20:02.330Z,47.77
2018-09-01T03:21:11.515Z,47.84
2018-09-01T03:22:20.712Z,47.77
2018-09-01T03:23:30.412Z,47.86
2018-09-01T03:24:39.588Z,47.74
2018-09-01T03:25:49.266Z,47.67
2018-09-01T03:26:59.204Z,47.86
2018-09-01T03:28:09.142Z,47.86
2018-09-01T03:29:18.307Z,47.77
2018-09-01T03:30:27.229Z,47.77
2018-09-01T03:31:36.914Z,47.86
2018-09-01T03:32:46.102Z,47.96
2018-09-01T03:33:55.533Z,47.77
2018-09-01T03:35:05.477Z,47.67
2018-09-01T03:36:14.924Z,47.86
2018-09-01T03:37:24.918Z,47.96
2018-09-01T03:38:34.589Z,47.86
2018-09-01T03:39:44.526Z,47.77
2018-09-01T03:40:53.949Z,47.86
2018-09-01T03:42:03.678Z,47.86
2018-09-01T03:43:13.114Z,47.84
2018-09-01T03:44:22.364Z,47.58
2018-09-01T03:45:32.077Z,47.86
2018-09-01T03:46:41.277Z,47.86
2018-09-01T03:47:51.030Z,47.67
2018-09-01T03:49:00.708Z,47.77
2018-09-01T03:50:10.147Z,47.96
2018-09-01T03:51:19.568Z,47.67
2018-09-01T03:52:28.735Z,47.96
2018-09-01T03:53:38.165Z,47.65
2018-09-01T03:54:47.622Z,47.86
2018-09-01T03:55:57.346Z,47.55
2018-09-01T03:57:06.774Z,47.74
2018-09-01T03:58:16.188Z,47.86
2018-09-01T03:59:25.623Z,47.84
2018-09-01T04:00:34.569Z,47.67
2018-09-01T04:01:44.262Z,47.84
2018-09-01T04:02:53.691Z,47.58
2018-09-01T04:04:02.636Z,47.84
2018-09-01T04:05:12.100Z,47.77
2018-09-01T04:06:21.328Z,47.86
2018-09-01T04:07:30.777Z,47.86
2018-09-01T04:08:39.951Z,47.94
2018-09-01T04:09:49.105Z,47.74
2018-09-01T04:10:59.053Z,47.96
2018-09-01T04:12:08.475Z,47.96
2018-09-01T04:13:17.914Z,47.65
2018-09-01T04:14:27.343Z,47.86
2018-09-01T04:15:37.031Z,47.77
2018-09-01T04:16:46.716Z,47.86
2018-09-01T04:17:56.140Z,47.94
2018-09-01T04:19:05.813Z,47.84
2018-09-01T04:20:14.981Z,47.86
2018-09-01T04:21:24.203Z,47.74
2018-09-01T04:22:33.439Z,47.86
2018-09-01T04:23:42.355Z,47.77
2018-09-01T04:24:52.065Z,47.84
2018-09-01T04:26:01.752Z,47.65
2018-09-01T04:27:11.106Z,47.65
2018-09-01T04:28:20.794Z,47.96
2018-09-01T04:29:30.743Z,47.65
2018-09-01T04:30:39.902Z,47.74
2018-09-01T04:31:49.580Z,47.65
2018-09-01T04:32:58.877Z,47.67
2018-09-01T04:34:08.066Z,47.86
2018-09-01T04:35:17.754Z,47.77
2018-09-01T04:36:27.451Z,47.65
2018-09-01T04:37:36.884Z,47.84
2018-09-01T04:38:46.816Z,47.67
2018-09-01T04:39:55.986Z,47.86
2018-09-01T04:41:05.227Z,47.74
2018-09-01T04:42:14.400Z,47.84
2018-09-01T04:43:23.611Z,47.65
2018-09-01T04:44:33.287Z,47.84
2018-09-01T04:45:42.474Z,47.74
2018-09-01T04:46:51.715Z,47.74
2018-09-01T04:48:01.837Z,47.74
2018-09-01T04:49:11.523Z,47.74
2018-09-01T04:50:21.221Z,47.74
2018-09-01T04:51:30.406Z,47.77
2018-09-01T04:52:39.898Z,47.65
2018-09-01T04:53:49.323Z,47.74
2018-09-01T04:54:58.512Z,47.77
2018-09-01T04:56:07.956Z,47.74
2018-09-01T04:57:17.397Z,47.77
2018-09-01T04:58:26.655Z,47.74
2018-09-01T04:59:36.611Z,47.84
2018-09-01T05:00:46.089Z,47.74
2018-09-01T05:01:55.885Z,47.74
2018-09-01T05:03:05.075Z,47.86
2018-09-01T05:04:14.785Z,47.65
2018-09-01T05:05:24.242Z,47.74
2018-09-01T05:06:33.931Z,47.65
2018-09-01T05:07:43.111Z,47.65
2018-09-01T05:08:52.857Z,47.77
2018-09-01T05:10:02.300Z,47.67
2018-09-01T05:11:11.743Z,47.77
2018-09-01T05:12:21.168Z,47.84
2018-09-01T05:13:30.097Z,47.77
2018-09-01T05:14:39.535Z,47.65
2018-09-01T05:15:48.450Z,47.67
2018-09-01T05:16:57.360Z,47.84
2018-09-01T05:18:07.082Z,47.74
2018-09-01T05:19:16.529Z,47.74
2018-09-01T05:20:26.217Z,47.86
2018-09-01T05:21:35.652Z,47.84
2018-09-01T05:22:45.369Z,47.74
2018-09-01T05:23:55.451Z,47.74
2018-09-01T05:25:04.844Z,47.74
2018-09-01T05:26:14.276Z,47.86
2018-09-01T05:27:23.953Z,47.67
2018-09-01T05:28:33.903Z,47.65
2018-09-01T05:29:43.120Z,47.65
2018-09-01T05:30:52.568Z,47.74
2018-09-01T05:32:01.783Z,47.94
2018-09-01T05:33:11.222Z,47.94
2018-09-01T05:34:20.981Z,47.65
2018-09-01T05:35:30.432Z,47.84
2018-09-01T05:36:40.357Z,47.74
2018-09-01T05:37:50.348Z,47.74
2018-09-01T05:38:59.772Z,47.77
2018-09-01T05:40:08.689Z,47.74
2018-09-01T05:41:18.692Z,47.74
2018-09-01T05:42:27.857Z,47.74
2018-09-01T05:43:37.354Z,47.48
2018-09-01T05:44:47.321Z,47.65
2018-09-01T05:45:56.752Z,47.74
2018-09-01T05:47:06.193Z,47.94
2018-09-01T05:48:15.633Z,47.94
2018-09-01T05:49:25.590Z,47.74
2018-09-01T05:50:34.857Z,47.86
2018-09-01T05:51:44.965Z,47.74
2018-09-01T05:52:54.392Z,47.74
2018-09-01T05:54:03.580Z,47.55
2018-09-01T05:55:12.749Z,47.94
2018-09-01T05:56:22.429Z,47.74
2018-09-01T05:57:31.632Z,47.94
2018-09-01T05:58:41.572Z,47.96
2018-09-01T05:59:51.516Z,47.45
2018-09-01T06:01:01.473Z,47.74
2018-09-01T06:02:11.424Z,47.45
2018-09-01T06:03:20.371Z,47.26
2018-09-01T06:04:29.592Z,47.48
2018-09-01T06:05:39.528Z,47.45
2018-09-01T06:06:49.003Z,47.38
2018-09-01T06:07:57.938Z,47.94
2018-09-01T06:09:07.423Z,47.36
2018-09-01T06:10:16.334Z,47.36
2018-09-01T06:11:25.257Z,47.26
2018-09-01T06:12:35.110Z,47.45
2018-09-01T06:13:44.554Z,47.36
2018-09-01T06:14:54.258Z,47.65
2018-09-01T06:16:03.686Z,47.45
2018-09-01T06:17:12.340Z,47.58
2018-09-01T06:18:21.255Z,47.55
2018-09-01T06:19:30.957Z,47.55
2018-09-01T06:20:40.457Z,47.36
2018-09-01T06:21:49.877Z,47.48
2018-09-01T06:22:59.823Z,47.55
2018-09-01T06:24:09.003Z,47.55
2018-09-01T06:25:18.717Z,47.45
2018-09-01T06:26:28.438Z,47.45
2018-09-01T06:27:37.627Z,47.45
2018-09-01T06:28:47.069Z,47.45
2018-09-01T06:29:55.993Z,47.55
2018-09-01T06:31:05.463Z,47.48
2018-09-01T06:32:15.185Z,47.55
2018-09-01T06:33:24.359Z,47.55
2018-09-01T06:34:33.812Z,47.55
2018-09-01T06:35:43.269Z,47.45
2018-09-01T06:36:52.776Z,47.45
2018-09-01T06:38:02.715Z,47.45
2018-09-01T06:39:11.918Z,47.48
2018-09-01T06:40:21.644Z,47.45
2018-09-01T06:41:31.076Z,47.36
2018-09-01T06:42:40.724Z,47.36
2018-09-01T06:43:49.905Z,47.36
2018-09-01T06:44:59.831Z,47.45
2018-09-01T06:46:08.524Z,47.45
2018-09-01T06:47:18.220Z,47.36
2018-09-01T06:48:27.155Z,47.45
2018-09-01T06:49:36.326Z,47.45
2018-09-01T06:50:45.783Z,47.65
2018-09-01T06:51:55.467Z,47.55
2018-09-01T06:53:04.438Z,47.67
2018-09-01T06:54:13.891Z,47.36
2018-09-01T06:55:23.071Z,47.55
2018-09-01T06:56:32.507Z,47.55
2018-09-01T06:57:42.257Z,47.45
2018-09-01T06:58:51.702Z,47.65
2018-09-01T07:00:01.661Z,47.55
2018-09-01T07:01:11.111Z,47.55
2018-09-01T07:02:20.560Z,47.65
2018-09-01T07:03:30.294Z,47.65
2018-09-01T07:04:39.488Z,47.45
2018-09-01T07:05:49.182Z,47.58
2018-09-01T07:06:58.356Z,47.58
2018-09-01T07:08:07.284Z,47.48
2018-09-01T07:09:16.484Z,47.45
2018-09-01T07:10:25.917Z,47.55
2018-09-01T07:11:34.583Z,47.36
2018-09-01T07:12:43.507Z,47.55
2018-09-01T07:13:52.974Z,47.55
2018-09-01T07:15:02.194Z,47.48
2018-09-01T07:16:11.372Z,47.65
2018-09-01T07:17:21.081Z,47.36
2018-09-01T07:18:30.024Z,47.36
2018-09-01T07:19:39.451Z,47.36
2018-09-01T07:20:49.132Z,47.65
2018-09-01T07:21:58.307Z,47.55
2018-09-01T07:23:07.475Z,47.65
2018-09-01T07:24:17.163Z,47.65
2018-09-01T07:25:26.329Z,47.55
2018-09-01T07:26:35.593Z,47.36
2018-09-01T07:27:44.772Z,47.55
2018-09-01T07:28:54.474Z,47.45
2018-09-01T07:30:04.032Z,47.45
2018-09-01T07:31:15.373Z,47.65
2018-09-01T07:32:27.390Z,47.45
2018-09-01T07:33:36.840Z,47.65
2018-09-01T07:34:46.532Z,47.45
2018-09-01T07:35:56.535Z,47.67
2018-09-01T07:37:05.988Z,47.65
2018-09-01T07:38:15.692Z,47.65
2018-09-01T07:39:24.991Z,47.36
2018-09-01T07:40:33.917Z,47.55
2018-09-01T07:41:43.656Z,47.45
2018-09-01T07:42:53.091Z,47.67
2018-09-01T07:44:02.249Z,47.36
2018-09-01T07:45:11.951Z,47.36
2018-09-01T07:46:21.384Z,47.36
2018-09-01T07:47:30.299Z,47.38
2018-09-01T07:48:39.760Z,47.36
2018-09-01T07:49:49.466Z,47.36
2018-09-01T07:50:58.982Z,47.65
2018-09-01T07:52:08.165Z,47.74
2018-09-01T07:53:17.339Z,47.19
2018-09-01T07:54:26.593Z,47.19
2018-09-01T07:55:36.768Z,47.19
2018-09-01T07:56:46.471Z,47.67
2018-09-01T07:57:56.173Z,47.55
2018-09-01T07:59:05.599Z,47.38
2018-09-01T08:00:14.774Z,47.16
2018-09-01T08:01:24.020Z,47.58
2018-09-01T08:02:33.449Z,47.58
2018-09-01T08:03:42.928Z,47.36
2018-09-01T08:04:52.354Z,47.45
2018-09-01T08:06:02.324Z,47.36
2018-09-01T08:07:11.503Z,47.55
2018-09-01T08:08:20.691Z,47.55
2018-09-01T08:09:29.870Z,47.45
2018-09-01T08:10:38.808Z,47.55
2018-09-01T08:11:48.825Z,47.67
2018-09-01T08:12:57.989Z,47.58
2018-09-01T08:14:08.198Z,47.19
2018-09-01T08:15:18.725Z,47.48
2018-09-01T08:16:28.188Z,47.55
2018-09-01T08:17:37.673Z,47.45
2018-09-01T08:18:47.389Z,47.48
2018-09-01T08:19:56.814Z,47.16
2018-09-01T08:21:06.303Z,47.48
2018-09-01T08:22:16.025Z,47.36
2018-09-01T08:23:25.720Z,47.55
2018-09-01T08:24:35.155Z,47.45
2018-09-01T08:25:44.336Z,47.09
2018-09-01T08:26:53.776Z,47.09
2018-09-01T08:28:03.736Z,47.19
2018-09-01T08:29:13.180Z,47.58
2018-09-01T08:30:22.607Z,47.09
2018-09-01T08:31:32.307Z,47.16
2018-09-01T08:32:42.029Z,47.48
2018-09-01T08:33:51.793Z,47.28
2018-09-01T08:35:01.384Z,47.55
2018-09-01T08:36:10.863Z,47.07
2018-09-01T08:37:20.044Z,47.07
2018-09-01T08:38:28.960Z,47.19
2018-09-01T08:39:38.941Z,47.55
2018-09-01T08:40:48.637Z,47.48
2018-09-01T08:41:58.063Z,47.55
2018-09-01T08:43:06.981Z,47.16
2018-09-01T08:44:16.423Z,47.07
2018-09-01T08:45:26.117Z,47.07
2018-09-01T08:46:35.478Z,47.26
2018-09-01T08:47:44.673Z,47.19
2018-09-01T08:48:53.583Z,47.19
2018-09-01T08:50:03.020Z,47.09
2018-09-01T08:51:12.227Z,47.28
2018-09-01T08:52:21.692Z,47.19
2018-09-01T08:53:31.388Z,47.19
2018-09-01T08:54:40.810Z,47.28
2018-09-01T08:55:50.225Z,47.28
2018-09-01T08:56:59.911Z,47.48
2018-09-01T08:58:09.361Z,47.07
2018-09-01T08:59:18.786Z,47.38
2018-09-01T09:00:28.471Z,47.36
2018-09-01T09:01:37.901Z,47.45
2018-09-01T09:02:47.337Z,47.45
2018-09-01T09:03:56.795Z,47.38
2018-09-01T09:05:06.236Z,47.38
2018-09-01T09:06:15.401Z,47.48
2018-09-01T09:07:24.833Z,47.48
2018-09-01T09:08:34.007Z,47.38
2018-09-01T09:09:43.175Z,47.36
2018-09-01T09:10:52.676Z,47.38
2018-09-01T09:12:02.115Z,47.36
2018-09-01T09:13:11.538Z,47.36
2018-09-01T09:14:21.317Z,47.38
2018-09-01T09:15:30.242Z,47.38
2018-09-01T09:16:39.949Z,47.38
2018-09-01T09:17:49.403Z,47.38
2018-09-01T09:18:58.592Z,47.28
2018-09-01T09:20:08.088Z,47.38
2018-09-01T09:21:17.789Z,47.38
2018-09-01T09:22:27.216Z,47.38
2018-09-01T09:23:36.643Z,47.38
2018-09-01T09:24:46.074Z,47.28
2018-09-01T09:25:55.261Z,47.28
2018-09-01T09:27:04.969Z,47.48
2018-09-01T09:28:14.931Z,47.28
2018-09-01T09:29:24.880Z,47.48
2018-09-01T09:30:34.582Z,47.48
2018-09-01T09:31:44.061Z,47.48
2018-09-01T09:32:53.767Z,47.26
2018-09-01T09:34:03.384Z,47.36
2018-09-01T09:35:12.589Z,47.28
2018-09-01T09:36:21.763Z,47.28
2018-09-01T09:37:30.936Z,47.38
2018-09-01T09:38:40.371Z,47.48
2018-09-01T09:39:49.042Z,47.38
2018-09-01T09:40:58.782Z,47.28
2018-09-01T09:42:07.941Z,47.45
2018-09-01T09:43:17.377Z,47.38
2018-09-01T09:44:26.815Z,47.28
2018-09-01T09:45:36.291Z,47.38
2018-09-01T09:46:45.452Z,47.19
2018-09-01T09:47:54.883Z,47.28
2018-09-01T09:49:04.301Z,47.48
2018-09-01T09:50:14.263Z,47.19
2018-09-01T09:51:24.211Z,47.28
2018-09-01T09:52:33.629Z,47.19
2018-09-01T09:53:43.297Z,47.38
2018-09-01T09:54:52.724Z,47.48
2018-09-01T09:56:01.896Z,47.28
2018-09-01T09:57:11.324Z,47.16
2018-09-01T09:58:20.992Z,47.48
2018-09-01T09:59:31.059Z,47.38
2018-09-01T10:00:40.245Z,47.38
2018-09-01T10:01:49.751Z,47.38
2018-09-01T10:02:59.226Z,47.48
2018-09-01T10:04:09.110Z,47.45
2018-09-01T10:05:19.284Z,47.48
2018-09-01T10:06:29.112Z,47.48
2018-09-01T10:07:38.042Z,47.48
2018-09-01T10:08:47.473Z,47.48
2018-09-01T10:09:56.439Z,47.48
2018-09-01T10:11:05.804Z,47.38
2018-09-01T10:12:15.731Z,47.48
2018-09-01T10:13:25.228Z,47.38
2018-09-01T10:14:35.197Z,47.38
2018-09-01T10:15:44.380Z,47.38
2018-09-01T10:16:54.640Z,47.38
2018-09-01T10:18:03.815Z,47.48
2018-09-01T10:19:13.500Z,47.19
2018-09-01T10:20:23.351Z,47.48
2018-09-01T10:21:32.250Z,47.38
2018-09-01T10:22:41.704Z,47.48
2018-09-01T10:23:50.871Z,47.28
2018-09-01T10:25:00.554Z,47.38
2018-09-01T10:26:09.755Z,47.36
2018-09-01T10:27:18.931Z,47.19
2018-09-01T10:28:28.382Z,47.38
2018-09-01T10:29:37.561Z,47.26
2018-09-01T10:30:46.999Z,47.19
2018-09-01T10:31:56.680Z,47.28
2018-09-01T10:33:06.367Z,47.09
2018-09-01T10:34:15.822Z,47.09
2018-09-01T10:35:25.513Z,47.19
2018-09-01T10:36:34.439Z,47.19
2018-09-01T10:37:44.146Z,47.19
2018-09-01T10:38:53.703Z,47.28
2018-09-01T10:40:03.130Z,47.28
2018-09-01T10:41:12.315Z,47.09
2018-09-01T10:42:21.757Z,47.09
2018-09-01T10:43:31.193Z,47.19
2018-09-01T10:44:40.684Z,47.19
2018-09-01T10:45:50.110Z,47.19
2018-09-01T10:46:59.832Z,47.19
2018-09-01T10:48:09.268Z,47.19
2018-09-01T10:49:18.541Z,47.19
2018-09-01T10:50:28.246Z,47.09
2018-09-01T10:51:37.661Z,47.19
2018-09-01T10:52:46.899Z,47.09
2018-09-01T10:53:56.386Z,47.19
2018-09-01T10:55:05.823Z,47.28
2018-09-01T10:56:15.527Z,47.19
2018-09-01T10:57:25.233Z,47.26
2018-09-01T10:58:34.695Z,47.19
2018-09-01T10:59:44.834Z,47.07
2018-09-01T11:00:55.337Z,47.19
2018-09-01T11:02:05.049Z,47.09
2018-09-01T11:03:14.593Z,47.09
2018-09-01T11:04:23.860Z,47.28
2018-09-01T11:05:33.480Z,47.19
2018-09-01T11:06:42.816Z,47.19
2018-09-01T11:07:51.751Z,47.19
2018-09-01T11:09:01.221Z,47.28
2018-09-01T11:10:10.393Z,47.19
2018-09-01T11:11:19.834Z,47.28
2018-09-01T11:12:29.288Z,47.19
2018-09-01T11:13:38.462Z,47.28
2018-09-01T11:14:47.386Z,47.19
2018-09-01T11:15:57.082Z,47.19
2018-09-01T11:17:06.506Z,47.28
2018-09-01T11:18:16.230Z,47.19
2018-09-01T11:19:25.441Z,47.28
2018-09-01T11:20:34.944Z,47.19
2018-09-01T11:21:44.210Z,47.19
2018-09-01T11:22:53.706Z,47.28
2018-09-01T11:24:03.141Z,47.19
2018-09-01T11:25:12.597Z,47.19
2018-09-01T11:26:22.581Z,47.19
2018-09-01T11:27:32.435Z,47.28
2018-09-01T11:28:42.841Z,47.28
2018-09-01T11:29:52.540Z,47.19
2018-09-01T11:31:02.221Z,47.28
2018-09-01T11:32:11.919Z,47.19
2018-09-01T11:33:21.369Z,47.38
2018-09-01T11:34:31.427Z,47.19
2018-09-01T11:35:40.650Z,47.19
2018-09-01T11:36:50.751Z,47.19
2018-09-01T11:38:01.111Z,47.38
2018-09-01T11:39:10.281Z,47.38
2018-09-01T11:40:20.052Z,47.19
2018-09-01T11:41:29.534Z,47.28
2018-09-01T11:42:38.576Z,47.19
2018-09-01T11:43:48.922Z,47.19
2018-09-01T11:44:58.392Z,47.36
2018-09-01T11:46:07.829Z,47.28
2018-09-01T11:47:17.018Z,47.28
2018-09-01T11:48:26.523Z,47.38
2018-09-01T11:49:36.394Z,47.28
2018-09-01T11:50:45.889Z,47.38
2018-09-01T11:51:55.625Z,47.28
2018-09-01T11:53:04.915Z,47.38
2018-09-01T11:54:15.048Z,47.28
2018-09-01T11:55:24.243Z,47.38
2018-09-01T11:56:33.972Z,47.38
2018-09-01T11:57:43.680Z,47.38
2018-09-01T11:58:53.272Z,47.28
2018-09-01T12:00:03.427Z,47.28
2018-09-01T12:01:12.900Z,47.36
2018-09-01T12:02:22.744Z,47.28
2018-09-01T12:03:32.265Z,47.28
2018-09-01T12:04:41.908Z,47.38
2018-09-01T12:05:51.372Z,47.38
2018-09-01T12:07:00.815Z,47.28
2018-09-01T12:08:10.273Z,47.48
2018-09-01T12:09:20.284Z,47.38
2018-09-01T12:10:30.722Z,47.38
2018-09-01T12:11:40.764Z,47.28
2018-09-01T12:12:50.257Z,47.38
2018-09-01T12:13:59.811Z,47.48
2018-09-01T12:15:09.574Z,47.28
2018-09-01T12:16:19.009Z,47.38
2018-09-01T12:17:28.705Z,47.28
2018-09-01T12:18:37.901Z,47.38
2018-09-01T12:19:47.619Z,47.28
2018-09-01T12:20:56.790Z,47.28
2018-09-01T12:22:05.487Z,47.28
2018-09-01T12:23:15.007Z,47.19
2018-09-01T12:24:24.222Z,47.28
2018-09-01T12:25:33.657Z,47.19
2018-09-01T12:26:43.617Z,47.09
2018-09-01T12:27:52.794Z,47.58
2018-09-01T12:29:01.800Z,47.58
2018-09-01T12:30:11.262Z,47.58
2018-09-01T12:31:20.207Z,47.28
2018-09-01T12:32:29.689Z,47.48
2018-09-01T12:33:39.131Z,47.58
2018-09-01T12:34:48.824Z,47.48
2018-09-01T12:35:57.743Z,47.38
2018-09-01T12:37:06.946Z,47.48
2018-09-01T12:38:16.154Z,47.38
2018-09-01T12:39:25.875Z,47.58
2018-09-01T12:40:35.101Z,46.9
2018-09-01T12:41:44.803Z,47.58
2018-09-01T12:42:53.752Z,46.8
2018-09-01T12:44:03.241Z,47.19
2018-09-01T12:45:12.523Z,46.7
2018-09-01T12:46:21.764Z,47.09
2018-09-01T12:47:30.964Z,46.61
2018-09-01T12:48:39.902Z,46.9
2018-09-01T12:49:49.339Z,46.8
2018-09-01T12:50:59.045Z,46.9
2018-09-01T12:52:08.490Z,46.9
2018-09-01T12:53:18.644Z,47
2018-09-01T12:54:27.886Z,46.8
2018-09-01T12:55:37.603Z,46.9
2018-09-01T12:56:46.797Z,46.9
2018-09-01T12:57:56.784Z,46.8
2018-09-01T12:59:05.989Z,46.7
2018-09-01T13:00:15.939Z,46.51
2018-09-01T13:01:25.122Z,46.51
2018-09-01T13:02:34.869Z,46.7
2018-09-01T13:03:44.593Z,46.8
2018-09-01T13:04:53.780Z,46.8
2018-09-01T13:06:03.233Z,46.8
2018-09-01T13:07:12.945Z,46.8
2018-09-01T13:08:22.118Z,46.9
2018-09-01T13:09:31.833Z,46.8
2018-09-01T13:10:41.527Z,46.8
2018-09-01T13:11:50.953Z,47
2018-09-01T13:13:00.381Z,46.61
2018-09-01T13:14:09.632Z,46.61
2018-09-01T13:15:19.124Z,46.61
2018-09-01T13:16:28.567Z,46.8
2018-09-01T13:17:38.266Z,46.7
2018-09-01T13:18:47.446Z,46.7
2018-09-01T13:19:56.948Z,46.7
2018-09-01T13:21:06.649Z,46.61
2018-09-01T13:22:15.819Z,46.7
2018-09-01T13:23:25.019Z,46.51
2018-09-01T13:24:34.480Z,46.42
2018-09-01T13:25:44.240Z,46.51
2018-09-01T13:26:53.409Z,46.51
2018-09-01T13:28:02.853Z,46.61
2018-09-01T13:29:12.314Z,46.51
2018-09-01T13:30:21.500Z,46.51
2018-09-01T13:31:30.961Z,46.7
2018-09-01T13:32:39.899Z,46.42
2018-09-01T13:33:49.353Z,46.32
2018-09-01T13:34:58.568Z,46.7
2018-09-01T13:36:08.301Z,46.7
2018-09-01T13:37:17.484Z,46.7
2018-09-01T13:38:26.683Z,46.7
2018-09-01T13:39:35.644Z,46.83
2018-09-01T13:40:44.848Z,46.73
2018-09-01T13:41:54.039Z,46.63
2018-09-01T13:43:03.992Z,46.61
2018-09-01T13:44:13.441Z,46.51
2018-09-01T13:45:22.632Z,46.63
2018-09-01T13:46:32.122Z,46.42
2018-09-01T13:47:41.845Z,46.34
2018-09-01T13:48:51.524Z,46.32
2018-09-01T13:50:00.763Z,46.51
2018-09-01T13:51:10.256Z,46.51
2018-09-01T13:52:19.989Z,46.15
2018-09-01T13:53:29.953Z,46.32
2018-09-01T13:54:39.395Z,46.44
2018-09-01T13:55:48.075Z,46.61
2018-09-01T13:56:57.758Z,46.63
2018-09-01T13:58:06.709Z,46.51
2018-09-01T13:59:16.207Z,46.44
2018-09-01T14:00:25.664Z,46.44
2018-09-01T14:01:35.107Z,46.51
2018-09-01T14:02:44.290Z,46.73
2018-09-01T14:03:53.722Z,46.53
2018-09-01T14:05:02.884Z,46.22
2018-09-01T14:06:12.441Z,46.63
2018-09-01T14:07:22.238Z,46.25
2018-09-01T14:08:32.222Z,46.44
2018-09-01T14:09:41.678Z,46.44
2018-09-01T14:10:50.860Z,46.25
2018-09-01T14:12:00.549Z,46.63
2018-09-01T14:13:09.716Z,46.53
2018-09-01T14:14:18.849Z,46.42
2018-09-01T14:15:28.414Z,46.73
2018-09-01T14:16:37.874Z,46.53
2018-09-01T14:17:47.834Z,46.44
2018-09-01T14:18:57.267Z,46.61
2018-09-01T14:20:06.452Z,46.53
2018-09-01T14:21:15.094Z,46.25
2018-09-01T14:22:24.806Z,46.15
2018-09-01T14:23:34.491Z,46.61
2018-09-01T14:24:44.502Z,46.63
2018-09-01T14:25:53.932Z,46.44
2018-09-01T14:27:03.628Z,46.53
2018-09-01T14:28:13.584Z,46.63
2018-09-01T14:29:22.539Z,46.73
2018-09-01T14:30:31.995Z,46.73
2018-09-01T14:31:41.694Z,46.63
2018-09-01T14:32:50.643Z,46.63
2018-09-01T14:33:59.896Z,46.53
2018-09-01T14:35:09.646Z,46.53
2018-09-01T14:36:19.140Z,46.53
2018-09-01T14:37:28.791Z,46.63
2018-09-01T14:38:38.070Z,46.63
2018-09-01T14:39:47.965Z,46.63
2018-09-01T14:40:57.194Z,46.53
2018-09-01T14:42:06.372Z,46.63
2018-09-01T14:43:15.535Z,46.73
2018-09-01T14:44:24.977Z,46.63
2018-09-01T14:45:34.177Z,46.51
2018-09-01T14:46:43.799Z,46.51
2018-09-01T14:47:52.881Z,46.22
2018-09-01T14:49:02.326Z,46.25
2018-09-01T14:50:11.262Z,46.25
2018-09-01T14:51:20.197Z,46.44
2018-09-01T14:52:29.644Z,46.53
2018-09-01T14:53:38.820Z,46.53
2018-09-01T14:54:48.272Z,46.63
2018-09-01T14:55:58.221Z,46.44